createdAt,value
2022-09-13T00:00:01.465Z,11.30
2022-09-13T00:02:28.052Z,11.20
2022-09-13T00:04:56.096Z,10.90
2022-09-13T00:17:10.554Z,10.80
2022-09-13T00:19:37.087Z,10.80
2022-09-13T00:22:06.830Z,11.00
2022-09-13T00:24:35.331Z,11.00
2022-09-13T00:27:04.677Z,11.20
2022-09-13T00:29:31.303Z,11.30
2022-09-13T00:31:58.225Z,11.00
2022-09-13T00:34:24.939Z,12.30
2022-09-13T00:36:51.560Z,11.20
2022-09-13T00:39:18.223Z,10.30
2022-09-13T00:41:44.873Z,10.80
2022-09-13T00:44:30.356Z,10.70
2022-09-13T00:46:56.999Z,10.50
2022-09-13T00:49:35.974Z,11.10
2022-09-13T00:52:05.765Z,10.40
2022-09-13T00:54:35.844Z,10.30
2022-09-13T00:57:04.009Z,10.50
2022-09-13T00:59:34.203Z,10.60
2022-09-13T01:02:01.989Z,10.50
2022-09-13T01:04:29.837Z,10.50
2022-09-13T01:06:59.353Z,10.60
2022-09-13T01:09:26.218Z,10.80
2022-09-13T01:11:58.769Z,10.60
2022-09-13T01:14:25.419Z,11.40
2022-09-13T01:16:52.318Z,10.50
2022-09-13T01:19:18.975Z,10.30
2022-09-13T01:21:54.886Z,10.50
2022-09-13T01:24:42.657Z,10.40
2022-09-13T01:27:41.881Z,10.40
2022-09-13T01:30:08.441Z,10.40
2022-09-13T01:32:54.236Z,10.40
2022-09-13T01:35:31.725Z,10.40
2022-09-13T01:38:17.103Z,10.40
2022-09-13T01:41:04.698Z,10.40
2022-09-13T01:43:31.569Z,10.40
2022-09-13T01:46:04.399Z,10.30
2022-09-13T01:48:40.206Z,10.90
2022-09-13T01:51:09.008Z,10.40
2022-09-13T01:53:46.875Z,10.90
2022-09-13T01:56:33.178Z,10.20
2022-09-13T01:59:04.991Z,10.20
2022-09-13T02:01:33.755Z,10.10
2022-09-13T02:04:03.384Z,10.00
2022-09-13T02:06:38.633Z,10.00
2022-09-13T02:09:09.851Z,10.10
2022-09-13T02:11:38.109Z,10.10
2022-09-13T02:14:07.739Z,10.10
2022-09-13T02:16:46.080Z,10.20
2022-09-13T02:19:21.707Z,10.10
2022-09-13T02:21:51.630Z,10.10
2022-09-13T02:24:21.657Z,10.40
2022-09-13T02:26:51.439Z,10.00
2022-09-13T02:29:21.106Z,9.90
2022-09-13T02:31:49.998Z,9.50
2022-09-13T02:34:22.428Z,9.50
2022-09-13T02:36:50.656Z,9.40
2022-09-13T02:39:18.038Z,10.70
2022-09-13T02:41:49.457Z,9.50
2022-09-13T02:44:22.060Z,9.60
2022-09-13T02:46:59.014Z,9.80
2022-09-13T02:49:45.874Z,9.90
2022-09-13T02:52:19.661Z,9.90
2022-09-13T02:54:49.396Z,10.90
2022-09-13T02:57:36.383Z,9.70
2022-09-13T03:00:03.032Z,10.40
2022-09-13T03:02:32.959Z,10.10
2022-09-13T03:05:00.388Z,11.10
2022-09-13T03:07:27.236Z,9.40
2022-09-13T03:10:05.944Z,9.40
2022-09-13T03:12:32.684Z,9.40
2022-09-13T03:15:04.518Z,9.40
2022-09-13T03:17:34.591Z,10.50
2022-09-13T03:20:09.256Z,9.50
2022-09-13T03:22:54.797Z,10.20
2022-09-13T03:25:30.262Z,9.50
2022-09-13T03:28:03.138Z,9.30
2022-09-13T03:30:30.756Z,9.40
2022-09-13T03:33:02.065Z,9.30
2022-09-13T03:35:42.956Z,10.10
2022-09-13T03:38:17.908Z,9.30
2022-09-13T03:40:52.427Z,9.40
2022-09-13T03:43:38.443Z,9.30
2022-09-13T03:46:09.637Z,9.40
2022-09-13T03:48:38.112Z,9.30
2022-09-13T03:51:05.525Z,9.30
2022-09-13T03:53:34.015Z,9.30
2022-09-13T03:56:01.698Z,9.30
2022-09-13T03:58:29.490Z,9.90
2022-09-13T04:00:57.712Z,9.50
2022-09-13T04:03:24.371Z,9.40
2022-09-13T04:05:51.037Z,10.10
2022-09-13T04:08:17.684Z,9.20
2022-09-13T04:10:44.371Z,10.40
2022-09-13T04:13:11.115Z,10.00
2022-09-13T04:15:37.771Z,9.50
2022-09-13T04:18:04.521Z,9.30
2022-09-13T04:20:31.289Z,9.50
2022-09-13T04:22:57.905Z,9.40
2022-09-13T04:25:24.659Z,9.40
2022-09-13T04:27:55.454Z,9.60
2022-09-13T04:30:22.272Z,9.10
2022-09-13T04:32:49.061Z,8.90
2022-09-13T04:35:17.647Z,8.90
2022-09-13T04:37:44.376Z,9.10
2022-09-13T04:40:11.508Z,9.00
2022-09-13T04:42:38.199Z,9.30
2022-09-13T04:45:06.417Z,10.30
2022-09-13T04:47:33.185Z,9.40
2022-09-13T04:49:59.800Z,9.40
2022-09-13T04:52:26.442Z,10.40
2022-09-13T04:54:53.223Z,9.80
2022-09-13T04:57:19.883Z,10.60
2022-09-13T04:59:46.535Z,9.20
2022-09-13T05:02:13.262Z,9.30
2022-09-13T05:04:39.953Z,10.00
2022-09-13T05:07:06.604Z,9.20
2022-09-13T05:09:33.303Z,9.10
2022-09-13T05:12:00.162Z,9.90
2022-09-13T05:14:26.828Z,9.20
2022-09-13T05:16:53.489Z,9.90
2022-09-13T05:19:20.144Z,9.10
2022-09-13T05:21:46.740Z,9.90
2022-09-13T05:24:13.386Z,9.90
2022-09-13T05:26:40.050Z,10.70
2022-09-13T05:29:06.703Z,9.60
2022-09-13T05:31:37.890Z,9.70
2022-09-13T05:34:06.679Z,9.80
2022-09-13T05:36:33.542Z,10.10
2022-09-13T05:39:28.331Z,9.60
2022-09-13T05:41:48.007Z,10.20
2022-09-13T05:44:14.735Z,10.00
2022-09-13T05:46:42.650Z,9.80
2022-09-13T05:49:09.415Z,10.90
2022-09-13T05:51:36.417Z,10.10
2022-09-13T05:54:03.151Z,10.20
2022-09-13T05:56:30.314Z,10.20
2022-09-13T05:58:56.966Z,10.20
2022-09-13T06:01:27.702Z,10.20
2022-09-13T06:03:55.342Z,10.20
2022-09-13T06:06:22.770Z,10.30
2022-09-13T06:08:52.297Z,10.70
2022-09-13T06:11:19.080Z,10.50
2022-09-13T06:13:45.736Z,11.60
2022-09-13T06:16:13.632Z,11.50
2022-09-13T06:18:40.626Z,10.50
2022-09-13T06:21:18.398Z,10.50
2022-09-13T06:23:49.249Z,10.60
2022-09-13T06:26:16.906Z,10.80
2022-09-13T06:28:46.740Z,10.80
2022-09-13T06:31:13.835Z,12.00
2022-09-13T06:33:41.633Z,11.70
2022-09-13T06:36:11.187Z,11.20
2022-09-13T06:38:39.076Z,11.00
2022-09-13T06:41:07.348Z,11.00
2022-09-13T06:43:34.468Z,11.20
2022-09-13T06:46:04.806Z,11.30
2022-09-13T06:48:32.219Z,11.50
2022-09-13T06:51:02.972Z,11.60
2022-09-13T06:53:30.120Z,11.60
2022-09-13T06:56:00.831Z,12.60
2022-09-13T06:58:29.885Z,11.90
2022-09-13T07:01:05.852Z,13.10
2022-09-13T07:03:32.458Z,12.80
2022-09-13T07:05:59.046Z,13.00
2022-09-13T07:08:25.592Z,13.00
2022-09-13T07:10:56.841Z,13.20
2022-09-13T07:13:23.420Z,12.80
2022-09-13T07:15:50.014Z,13.60
2022-09-13T07:18:16.566Z,13.70
2022-09-13T07:20:43.272Z,13.00
2022-09-13T07:23:14.729Z,13.80
2022-09-13T07:25:41.897Z,14.30
2022-09-13T07:28:08.518Z,14.20
2022-09-13T07:30:35.097Z,14.60
2022-09-13T07:33:01.680Z,13.90
2022-09-13T07:35:28.261Z,14.20
2022-09-13T07:37:54.827Z,13.80
2022-09-13T07:40:21.482Z,15.20
2022-09-13T07:42:48.112Z,14.70
2022-09-13T07:45:15.199Z,15.20
2022-09-13T07:47:42.633Z,13.90
2022-09-13T07:50:09.441Z,14.70
2022-09-13T07:52:37.981Z,14.20
2022-09-13T07:55:04.921Z,14.40
2022-09-13T07:57:31.506Z,14.50
2022-09-13T07:59:58.122Z,16.50
2022-09-13T08:02:24.739Z,14.70
2022-09-13T08:04:51.385Z,15.00
2022-09-13T08:07:17.985Z,15.30
2022-09-13T08:09:44.614Z,16.50
2022-09-13T08:12:11.184Z,16.20
2022-09-13T08:14:37.831Z,16.20
2022-09-13T08:17:04.523Z,16.10
2022-09-13T08:19:31.155Z,16.30
2022-09-13T08:21:57.747Z,17.50
2022-09-13T08:24:26.886Z,15.40
2022-09-13T08:26:54.691Z,16.50
2022-09-13T08:29:21.315Z,17.50
2022-09-13T08:31:47.884Z,16.20
2022-09-13T08:34:18.045Z,16.20
2022-09-13T08:36:44.836Z,16.30
2022-09-13T08:39:13.510Z,15.00
2022-09-13T08:41:40.200Z,17.20
2022-09-13T08:44:13.489Z,16.30
2022-09-13T08:46:42.376Z,16.40
2022-09-13T08:49:16.381Z,17.50
2022-09-13T08:51:48.392Z,18.40
2022-09-13T08:54:16.865Z,16.90
2022-09-13T08:56:46.619Z,17.40
2022-09-13T09:06:35.272Z,17.50
2022-09-13T09:13:59.405Z,17.70
2022-09-13T09:16:38.245Z,18.40
2022-09-13T09:19:34.295Z,17.80
2022-09-13T09:22:02.843Z,18.00
2022-09-13T09:24:36.175Z,18.40
2022-09-13T09:27:10.286Z,19.00
2022-09-13T09:29:38.107Z,18.10
2022-09-13T09:52:17.647Z,19.20
2022-09-13T09:54:45.367Z,20.00
2022-09-13T09:57:13.335Z,19.60
2022-09-13T09:59:39.900Z,20.60
2022-09-13T10:02:20.506Z,20.40
2022-09-13T10:04:54.673Z,19.40
2022-09-13T10:07:32.573Z,19.60
2022-09-13T10:10:02.189Z,19.60
2022-09-13T10:12:31.386Z,20.00
2022-09-13T10:17:27.949Z,19.90
2022-09-13T10:20:02.133Z,20.00
2022-09-13T10:22:29.898Z,20.30
2022-09-13T10:25:13.293Z,20.30
2022-09-13T10:27:42.754Z,20.20
2022-09-13T10:30:24.702Z,20.60
2022-09-13T10:32:55.628Z,20.20
2022-09-13T10:35:29.875Z,20.50
2022-09-13T10:37:56.502Z,20.90
2022-09-13T10:40:30.728Z,20.90
2022-09-13T10:42:58.157Z,21.70
2022-09-13T10:47:54.459Z,21.60
2022-09-13T10:50:28.248Z,22.70
2022-09-13T10:52:55.658Z,22.20
2022-09-13T10:55:22.196Z,22.10
2022-09-13T10:58:08.844Z,22.10
2022-09-13T11:04:01.988Z,22.20
2022-09-13T11:06:28.589Z,22.30
2022-09-13T11:11:27.818Z,22.70
2022-09-13T11:14:03.366Z,22.20
2022-09-13T11:16:55.281Z,22.30
2022-09-13T11:23:22.417Z,22.10
2022-09-13T11:26:05.290Z,22.40
2022-09-13T11:42:27.235Z,21.80
2022-09-13T11:45:12.883Z,22.40
2022-09-13T11:47:51.604Z,21.60
2022-09-13T11:50:27.456Z,21.50
2022-09-13T11:53:09.413Z,21.30
2022-09-13T11:55:40.663Z,21.20
2022-09-13T11:58:31.556Z,21.40
2022-09-13T12:01:02.562Z,20.90
2022-09-13T12:03:32.365Z,20.90
2022-09-13T12:06:07.800Z,20.90
2022-09-13T12:08:40.602Z,20.90
2022-09-13T12:11:16.209Z,21.00
2022-09-13T12:13:51.068Z,20.80
2022-09-13T12:16:26.832Z,21.10
2022-09-13T12:18:56.807Z,21.00
2022-09-13T12:21:25.469Z,20.30
2022-09-13T12:24:01.466Z,21.00
2022-09-13T12:26:36.123Z,20.80
2022-09-13T12:29:12.882Z,20.80
2022-09-13T12:31:39.663Z,20.80
2022-09-13T12:34:08.007Z,21.10
2022-09-13T12:36:34.660Z,21.00
2022-09-13T12:39:04.277Z,21.10
2022-09-13T12:42:00.319Z,21.10
2022-09-13T12:44:33.540Z,21.20
2022-09-13T12:47:13.124Z,21.50
2022-09-13T12:49:40.357Z,21.50
2022-09-13T12:52:17.422Z,21.60
2022-09-13T12:55:03.367Z,21.70
2022-09-13T12:57:30.143Z,21.70
2022-09-13T13:00:03.287Z,21.80
2022-09-13T13:02:29.943Z,21.80
2022-09-13T13:04:58.694Z,21.80
2022-09-13T13:07:25.535Z,21.90
2022-09-13T13:09:53.856Z,21.60
2022-09-13T13:12:34.363Z,21.60
2022-09-13T13:15:01.930Z,22.00
2022-09-13T13:22:42.052Z,23.60
2022-09-13T13:37:30.906Z,26.30
2022-09-13T13:40:11.344Z,26.40
2022-09-13T13:42:39.687Z,25.80
2022-09-13T13:45:26.680Z,26.20
2022-09-13T13:52:47.844Z,24.90
2022-09-13T13:57:44.371Z,25.20
2022-09-13T14:02:45.154Z,28.60
2022-09-13T14:05:17.693Z,28.70
2022-09-13T14:12:44.673Z,28.20
2022-09-13T14:15:23.536Z,27.60
2022-09-13T14:18:09.700Z,26.70
2022-09-13T14:20:38.628Z,27.90
2022-09-13T14:25:32.450Z,27.90
2022-09-13T14:33:22.391Z,27.90
2022-09-13T14:35:57.179Z,26.50
2022-09-13T14:38:23.747Z,26.00
2022-09-13T14:43:20.065Z,24.70
2022-09-13T14:45:48.502Z,24.30
2022-09-13T14:50:57.304Z,24.00
2022-09-13T14:53:29.224Z,23.90
2022-09-13T14:55:57.082Z,23.70
2022-09-13T14:58:29.231Z,23.60
2022-09-13T15:00:58.542Z,23.60
2022-09-13T15:11:06.434Z,23.60
2022-09-13T15:13:33.670Z,23.70
2022-09-13T15:16:00.542Z,24.30
2022-09-13T15:18:36.836Z,23.80
2022-09-13T15:33:27.508Z,22.60
2022-09-13T15:36:12.696Z,23.60
2022-09-13T15:38:55.313Z,23.50
2022-09-13T15:41:21.935Z,23.50
2022-09-13T15:43:48.834Z,22.90
2022-09-13T16:03:25.687Z,22.70
2022-09-13T16:15:42.875Z,21.90
2022-09-13T16:20:36.807Z,21.70
2022-09-13T16:23:03.435Z,21.60
2022-09-13T16:25:31.197Z,21.40
2022-09-13T16:27:59.025Z,21.40
2022-09-13T16:30:27.789Z,21.20
2022-09-13T16:32:54.408Z,22.20
2022-09-13T16:35:21.041Z,22.00
2022-09-13T16:37:51.456Z,21.50
2022-09-13T16:40:19.159Z,22.30
2022-09-13T16:42:51.913Z,21.40
2022-09-13T16:48:19.829Z,21.30
2022-09-13T16:51:06.221Z,21.10
2022-09-13T16:56:20.323Z,21.00
2022-09-13T16:59:00.922Z,20.90
2022-09-13T17:01:47.855Z,20.70
2022-09-13T17:04:14.591Z,20.70
2022-09-13T17:06:41.171Z,20.80
2022-09-13T17:09:21.007Z,21.10
2022-09-13T17:11:48.252Z,20.50
2022-09-13T17:14:17.296Z,20.50
2022-09-13T17:16:46.383Z,20.40
2022-09-13T17:19:14.536Z,21.10
2022-09-13T17:21:41.193Z,20.20
2022-09-13T17:24:13.082Z,20.60
2022-09-13T17:26:40.454Z,20.60
2022-09-13T17:29:07.060Z,20.80
2022-09-13T17:31:33.861Z,20.10
2022-09-13T17:34:00.526Z,20.10
2022-09-13T17:36:27.186Z,20.60
2022-09-13T17:38:57.732Z,20.00
2022-09-13T17:41:25.113Z,19.80
2022-09-13T17:43:52.378Z,20.40
2022-09-13T17:46:23.800Z,19.80
2022-09-13T17:48:52.045Z,20.20
2022-09-13T17:51:24.582Z,20.30
2022-09-13T17:53:53.259Z,19.50
2022-09-13T17:56:21.104Z,19.40
2022-09-13T17:58:48.023Z,19.20
2022-09-13T18:01:15.160Z,19.30
2022-09-13T18:03:41.935Z,19.50
2022-09-13T18:06:09.394Z,19.70
2022-09-13T18:08:37.178Z,19.80
2022-09-13T18:11:13.702Z,19.80
2022-09-13T18:13:41.473Z,19.00
2022-09-13T18:16:09.465Z,19.00
2022-09-13T18:18:40.522Z,19.30
2022-09-13T18:21:09.870Z,19.50
2022-09-13T18:23:36.479Z,19.50
2022-09-13T18:26:10.631Z,18.70
2022-09-13T18:28:37.817Z,19.40
2022-09-13T18:31:06.436Z,18.70
2022-09-13T18:33:33.660Z,18.60
2022-09-13T18:36:13.995Z,18.80
2022-09-13T18:38:41.734Z,18.50
2022-09-13T18:41:15.948Z,18.30
2022-09-13T18:43:43.766Z,18.40
2022-09-13T18:46:11.891Z,18.50
2022-09-13T18:48:39.766Z,18.40
2022-09-13T18:51:09.325Z,17.60
2022-09-13T18:53:36.188Z,18.40
2022-09-13T18:56:04.279Z,18.50
2022-09-13T18:58:31.447Z,18.40
2022-09-13T19:01:01.890Z,18.40
2022-09-13T19:03:28.701Z,18.40
2022-09-13T19:05:55.419Z,18.40
2022-09-13T19:08:22.135Z,17.70
2022-09-13T19:10:48.788Z,18.30
2022-09-13T19:13:15.391Z,18.40
2022-09-13T19:15:42.048Z,19.00
2022-09-13T19:18:08.674Z,18.10
2022-09-13T19:20:35.222Z,19.10
2022-09-13T19:25:30.095Z,18.10
2022-09-13T19:27:56.707Z,18.30
2022-09-13T19:30:23.342Z,18.70
2022-09-13T19:32:49.989Z,19.10
2022-09-13T19:35:16.775Z,18.50
2022-09-13T19:37:43.323Z,19.20
2022-09-13T19:40:10.173Z,18.30
2022-09-13T19:42:36.818Z,18.10
2022-09-13T19:45:03.527Z,18.70
2022-09-13T19:48:19.389Z,18.00
2022-09-13T19:50:16.740Z,18.80
2022-09-13T19:55:10.349Z,18.10
2022-09-13T19:57:36.937Z,19.00
2022-09-13T20:00:04.007Z,18.70
2022-09-13T20:02:30.579Z,18.10
2022-09-13T20:04:57.190Z,19.70
2022-09-13T20:07:24.595Z,19.10
2022-09-13T20:09:51.229Z,18.90
2022-09-13T20:12:20.245Z,18.90
2022-09-13T20:17:14.531Z,17.70
2022-09-13T20:19:46.208Z,17.80
2022-09-13T20:24:43.251Z,17.80
2022-09-13T20:29:37.108Z,17.70
2022-09-13T20:32:04.058Z,19.00
2022-09-13T20:34:31.780Z,19.00
2022-09-13T20:36:58.428Z,18.30
2022-09-13T20:39:25.046Z,18.80
2022-09-13T20:41:51.991Z,18.40
2022-09-13T20:44:18.563Z,18.40
2022-09-13T20:46:45.216Z,19.30
2022-09-13T20:49:12.026Z,18.70
2022-09-13T20:51:38.921Z,18.50
2022-09-13T20:54:06.123Z,19.40
2022-09-13T20:56:34.260Z,18.00
2022-09-13T20:59:01.529Z,18.90
2022-09-13T21:01:29.556Z,18.50
2022-09-13T21:03:56.664Z,17.60
2022-09-13T21:06:24.715Z,18.90
2022-09-13T21:08:52.180Z,17.70
2022-09-13T21:11:25.291Z,17.60
2022-09-13T21:13:53.477Z,17.70
2022-09-13T21:16:21.477Z,18.20
2022-09-13T21:18:48.462Z,18.00
2022-09-13T21:21:19.433Z,18.50
2022-09-13T21:23:46.561Z,17.50
2022-09-13T21:26:14.954Z,17.90
2022-09-13T21:28:45.072Z,17.70
2022-09-13T21:31:15.232Z,18.30
2022-09-13T21:33:45.192Z,17.30
2022-09-13T21:36:12.639Z,18.20
2022-09-13T21:38:39.381Z,17.80
2022-09-13T21:41:13.722Z,17.60
2022-09-13T21:43:40.613Z,17.40
2022-09-13T21:46:09.832Z,17.40
2022-09-13T21:48:36.673Z,17.20
2022-09-13T21:51:05.356Z,18.00
2022-09-13T21:53:33.953Z,16.80
2022-09-13T21:56:00.747Z,17.80
2022-09-13T21:58:27.398Z,17.30
2022-09-13T22:00:54.125Z,17.70
2022-09-13T22:03:20.815Z,17.40
2022-09-13T22:05:54.505Z,17.50
2022-09-13T22:08:21.061Z,17.10
2022-09-13T22:10:47.617Z,17.10
2022-09-13T22:13:14.347Z,17.00
2022-09-13T22:15:40.906Z,17.00
2022-09-13T22:18:07.471Z,17.10
2022-09-13T22:20:37.188Z,17.50
2022-09-13T22:23:03.763Z,17.00
2022-09-13T22:25:30.345Z,16.00
2022-09-13T22:27:57.116Z,17.00
2022-09-13T22:30:23.669Z,18.10
2022-09-13T22:32:50.337Z,17.10
2022-09-13T22:35:16.882Z,17.20
2022-09-13T22:37:43.442Z,17.10
2022-09-13T22:40:10.131Z,17.10
2022-09-13T22:42:36.805Z,17.00
2022-09-13T22:45:03.792Z,17.00
2022-09-13T22:47:30.409Z,17.00
2022-09-13T22:49:56.970Z,16.90
2022-09-13T22:52:23.541Z,16.70
2022-09-13T22:54:50.902Z,16.80
2022-09-13T22:57:17.527Z,16.70
2022-09-13T22:59:44.111Z,16.80
2022-09-13T23:02:10.684Z,16.80
2022-09-13T23:04:37.257Z,16.80
2022-09-13T23:07:03.801Z,16.80
2022-09-13T23:09:30.357Z,16.80
2022-09-13T23:11:56.899Z,16.70
2022-09-13T23:14:23.463Z,16.70
2022-09-13T23:16:51.140Z,16.70
2022-09-13T23:19:19.442Z,16.70
2022-09-13T23:21:46.263Z,16.70
2022-09-13T23:24:14.000Z,16.80
2022-09-13T23:26:40.559Z,16.80
2022-09-13T23:29:07.163Z,16.80
2022-09-13T23:31:34.860Z,16.80
2022-09-13T23:34:03.004Z,16.50
2022-09-13T23:36:31.146Z,17.50
2022-09-13T23:38:59.083Z,17.30
2022-09-13T23:41:25.911Z,17.40
2022-09-13T23:43:53.249Z,16.80
2022-09-13T23:46:20.062Z,16.80
2022-09-13T23:48:46.811Z,17.10
2022-09-13T23:51:14.921Z,17.50
2022-09-13T23:53:41.910Z,16.80
2022-09-13T23:56:09.167Z,17.40
2022-09-13T23:58:36.478Z,17.10
